x

East Bahamas - 335 Nm East Of San Salvador Is, Bahamas (41046) Wave Buoy

5:50am - Sat 19th Apr 2014 All times are UTC.

  • Sig Wave height 6.9ft
  • Peak Period 9s
  • Average Period 6s
  • Wind
    18mph, 22mph gusts
  • Sea Temp 79°f
  • Air Temp 78°f
  • Sea Pressure 1020.2mb

More Historic Weather Station data

Upgrade to MSW Pro to gain access to the past 30 days of data for over 8000 Wavebouys and Weather Stations around the globe.

Join Pro

Comparision Forecast

View Surf forecast
   
Sat 04/19 5:50am 7ft 9s 6s 18 22 mph 1020.2mb 79f 78f
4:50am 8ft 9s 6s 20 22 mph 1020.6mb 79f 78f
3:50am 8ft 10s 6s 18 22 mph 1021mb 79f 78f
2:50am 8ft 9s 6s 20 25 mph 1021.1mb 79f 78f
1:50am 8.5ft 10s 6s 20 25 mph 1021mb 79f 78f
12:50am 8.5ft 10s 6s 20 25 mph 1020.9mb 79f 78f
Fri 04/18 11:50pm 8ft 8s 6s 20 25 mph 1020.3mb 79f 78f
10:50pm 9ft 9s 6s 18 22 mph 1019.9mb 79f 79f
9:50pm 8ft 9s 6s 18 22 mph 1020.2mb 79f 79f
8:50pm 8ft 10s 6s 18 22 mph 1020.1mb 79f 79f
7:50pm 8ft 9s 6s 18 22 mph 1020mb 79f 79f
6:50pm 8.5ft 9s 6s 20 27 mph 1020.3mb 79f 79f
5:50pm 8ft 9s 6s 22 27 mph 1020.4mb 79f 79f
4:50pm 9ft 9s 6s 22 27 mph 1021mb 79f 79f
3:50pm 9.5ft 9s 6s 20 25 mph 1021.2mb 79f 79f
2:50pm 8ft 9s 6s 22 27 mph 1021.3mb 79f 79f
1:50pm 8ft 9s 6s 22 27 mph 1021.4mb 79f 78f
12:50pm 9ft 10s 6s 22 27 mph 1021.1mb 79f 78f
11:50am 9ft 9s 6s 22 27 mph 1020.6mb 79f 78f
10:50am 9ft 10s 6s 22 27 mph 1019.9mb 79f 78f
9:50am 9ft 9s 6s 22 27 mph 1019.3mb 79f 78f
8:50am 8ft 9s 6s 22 27 mph 1018.7mb 79f 78f
7:50am 7.5ft 10s 6s 22 27 mph 1018.6mb 79f 78f
6:50am 7ft 10s 6s 20 25 mph 1019mb 79f 78f
5:50am 7.5ft 10s 6s 20 25 mph 1019.4mb 79f 78f
4:50am 7ft 9s 6s 20 22 mph 1020.4mb 79f 78f
3:50am 6ft 8s 5s 25 29 mph 1021mb 79f 78f
2:50am 6.5ft 9s 6s 20 25 mph 1021.1mb 79f 78f
1:50am 6.5ft 9s 6s 20 25 mph 1021.1mb 79f 76f
12:50am 6ft 9s 6s 18 22 mph 1020.9mb 79f 78f
Thu 04/17 11:50pm 5.5ft 9s 6s 16 20 mph 1020.7mb 79f 78f
10:50pm 5.5ft 10s 6s 16 18 mph 1020.2mb 79f 78f
9:50pm 6ft 10s 6s 16 20 mph 1019.7mb 79f 78f
8:50pm 6ft 10s 6s 13 16 mph 1019.5mb 79f 78f
7:50pm 5ft 10s 6s 16 18 mph 1019.6mb 79f 78f
6:50pm 6ft 9s 6s 13 16 mph 1019.8mb 79f 78f
5:50pm 5.5ft 9s 6s 16
mph
1020.1mb 79f 78f
4:50pm 5ft 10s 5s 16 18 mph 1020.6mb 79f 78f
3:50pm 5.5ft 10s 6s 13 18 mph 1020.7mb 79f 78f
2:50pm 6ft 10s 6s 16 18 mph 1020.9mb 79f 78f
1:50pm 6ft 9s 6s 16 18 mph 1020.4mb 79f 78f
12:50pm 6ft 9s 6s 16 18 mph 1019.9mb 79f 78f
11:50am 5.5ft 10s 6s 16 18 mph 1019.5mb 79f 78f
10:50am 6ft 10s 6s 16 18 mph 1018.9mb 79f 78f
9:50am 6ft 10s 6s 16 18 mph 1018.5mb 79f 77f
8:50am 6ft 10s 6s 13 18 mph 1018.1mb 79f 77f
7:50am 6ft 10s 6s 16 18 mph 1017.8mb 79f 77f
6:50am 6ft 10s 6s 13 18 mph 1018.3mb 79f 77f
5:50am 5.5ft 10s 6s 16 18 mph 1018.5mb 79f 78f
4:50am 6ft 10s 6s 16 18 mph 1019mb 79f 78f
3:50am 6ft 10s 6s 16 18 mph 1019.5mb 79f 78f
2:50am 5ft 10s 6s 13 16 mph 1019.6mb 79f 78f
1:50am 5ft 10s 6s 13 16 mph 1019.3mb 79f 78f
12:50am 5.5ft 10s 7s 13 16 mph 1019mb 79f 78f
Wed 04/16 11:50pm 5ft 10s 6s 11 13 mph 1018.5mb 79f 78f
10:50pm 5ft 10s 7s 11 13 mph 1018.1mb 79f 78f
9:50pm 4.5ft 9s 6s 11 13 mph 1017.6mb 80f 78f
8:50pm 4.5ft 10s 6s 9 11 mph 1017.1mb 80f 78f
7:50pm 4.5ft 9s 6s 7 9 mph 1017mb 80f 78f
6:50pm 4.5ft 9s 6s 9 11 mph 1017.3mb 80f 78f
5:50pm 4.5ft 8s 6s 9 13 mph 1017.6mb 79f 78f
4:50pm 4.5ft 8s 6s 11 13 mph 1017.8mb 79f 78f
3:50pm 4.5ft 9s 6s 9 11 mph 1018.2mb 79f 78f
2:50pm 5ft 8s 6s 9
mph
1018.5mb 79f 78f
1:50pm 4.5ft 8s 6s 9 11 mph 1018.4mb 79f 77f
12:50pm 5ft 8s 6s 9
mph
1017.8mb 79f 77f
11:50am 4ft 8s 6s 9 11 mph 1017.3mb 79f 77f
10:50am 4.5ft 8s 6s 11 13 mph 1016.8mb 79f 77f
9:50am 4.5ft 8s 6s 11 13 mph 1016.4mb 79f 76f
8:50am 4.5ft 8s 6s 9 11 mph 1016.2mb 79f 76f
7:50am 4.5ft 8s 6s 9 11 mph 1016.1mb 79f 76f
6:50am 4.5ft 8s 5s 11 13 mph 1016.3mb 79f 76f
5:50am 4.5ft 8s 5s 11 13 mph 1016.6mb 79f 77f
4:50am 4.5ft 9s 5s 11 13 mph 1017.3mb 79f 77f
3:50am 4ft 9s 5s 11 16 mph 1017.6mb 79f 77f
2:50am 4.5ft 8s 5s 11 13 mph 1017.6mb 79f 77f
1:50am 4.5ft 9s 5s 13
mph
1017.2mb 79f 77f
12:50am 4.5ft 8s 5s 13
mph
1017mb 79f 77f
Tue 04/15 11:50pm 4.5ft 7s 5s 11 13 mph 1016.2mb 79f 77f
10:50pm 4.5ft 8s 5s 11 16 mph 1015.8mb 79f 77f
9:50pm 4.5ft 8s 5s 13 16 mph 1015.6mb 79f 77f
8:50pm 4.5ft 7s 5s 11 16 mph 1015.2mb 79f 77f
7:50pm 5ft 7s 5s 13 16 mph 1015.2mb 79f 77f
6:50pm 5ft 8s 5s 13 16 mph 1015.6mb 79f 77f
5:50pm 5ft 8s 5s 13 16 mph 1016.2mb 79f 77f
4:50pm 5ft 8s 5s 13 16 mph 1016.9mb 79f 77f
3:50pm 5ft 8s 5s 13 16 mph 1017.2mb 79f 77f
2:50pm 5.5ft 8s 5s 13 18 mph 1017.3mb 79f 77f
1:50pm 5.5ft 7s 5s 16 18 mph 1017.1mb 79f 77f
12:50pm 5ft 8s 5s 16 18 mph 1016.8mb 78f 77f
11:50am 5.5ft 8s 5s 16 18 mph 1016.7mb 78f 77f
10:50am 5ft 9s 5s 16 18 mph 1016.3mb 78f 77f
9:50am 5ft 9s 5s 11 13 mph 1015.7mb 78f 76f
8:50am 5.5ft 8s 5s 13 16 mph 1015.4mb 78f 76f
7:50am 5.5ft 8s 5s 13 18 mph 1015.2mb 78f 76f